Time;durP1;ratioP1;P1;durP2;ratioP2;P2;SDS_P1;SDS_P2;PMS_P1;PMS_P2;Temp;Humidity;BMP_temperature;BMP_pressure;BME280_temperature;BME280_humidity;BME280_pressure;Samples;Min_cycle;Max_cycle;Signal;HPM_P1;HPM_P2
2021/04/18 00:00:23;;;;;;;10.50;5.10;;;;;;;15.35;44.99;100602.72;4990196;28;20046;-61
2021/04/18 00:02:51;;;;;;;10.17;5.27;;;;;;;15.49;45.00;100630.06;4992367;28;20054;-64
2021/04/18 00:05:24;;;;;;;8.43;4.50;;;;;;;15.36;45.00;100604.41;4989824;28;20050;-63
2021/04/18 00:07:52;;;;;;;8.67;5.37;;;;;;;15.58;44.61;100628.16;4992684;28;20048;-62
2021/04/18 00:10:20;;;;;;;8.30;4.73;;;;;;;15.57;44.74;100623.69;4988354;28;20104;-62
2021/04/18 00:12:46;;;;;;;8.67;5.37;;;;;;;15.49;44.67;100615.97;4988774;28;20064;-62
2021/04/18 00:15:15;;;;;;;11.53;5.43;;;;;;;15.58;44.82;100620.53;4987526;28;20129;-63
2021/04/18 00:17:41;;;;;;;12.67;6.37;;;;;;;15.44;44.44;100590.75;4990840;28;20480;-63
2021/04/18 00:20:14;;;;;;;9.30;5.63;;;;;;;15.73;44.27;100618.63;4992094;28;20050;-62
2021/04/18 00:22:42;;;;;;;14.77;4.83;;;;;;;15.68;44.55;100622.34;4987481;28;20407;-61
2021/04/18 00:25:14;;;;;;;8.97;5.00;;;;;;;15.64;44.24;100599.59;4991964;28;20427;-61
2021/04/18 00:27:49;;;;;;;8.10;5.22;;;;;;;15.72;44.36;100617.75;4990048;28;20462;-62
2021/04/18 00:30:18;;;;;;;8.20;4.40;;;;;;;15.72;44.41;100617.75;4988511;28;20049;-62
2021/04/18 00:32:45;;;;;;;13.27;5.32;;;;;;;15.72;44.18;100612.13;4991087;28;20057;-60
2021/04/18 00:35:13;;;;;;;8.77;5.17;;;;;;;15.76;44.10;100620.78;4989169;28;20053;-62
2021/04/18 00:37:40;;;;;;;14.20;8.07;;;;;;;15.62;44.32;100592.59;4991643;28;22040;-61
2021/04/18 00:40:12;;;;;;;10.43;5.43;;;;;;;15.78;44.07;100613.69;4989948;28;20049;-61
2021/04/18 00:42:39;;;;;;;14.60;7.57;;;;;;;15.81;44.42;100615.88;4990980;28;20414;-61
2021/04/18 00:45:07;;;;;;;12.07;6.07;;;;;;;15.76;44.37;100621.66;4986570;28;20072;-62
2021/04/18 00:47:35;;;;;;;10.60;6.70;;;;;;;15.56;44.42;100596.69;4992130;28;20046;-62
2021/04/18 00:50:05;;;;;;;10.27;6.73;;;;;;;15.62;44.55;100596.28;4987785;28;20046;-60
2021/04/18 00:52:31;;;;;;;12.20;6.87;;;;;;;15.17;44.48;100547.38;4987812;28;20050;-61
2021/04/18 00:54:57;;;;;;;16.00;6.80;;;;;;;15.69;44.70;100609.97;4989375;28;20072;-61
2021/04/18 00:57:24;;;;;;;15.03;7.10;;;;;;;15.69;45.01;100620.38;4991446;28;20054;-61
2021/04/18 00:59:51;;;;;;;12.37;6.63;;;;;;;15.54;45.12;100602.63;4988015;28;20058;-61
2021/04/18 01:02:17;;;;;;;11.17;7.27;;;;;;;15.43;45.11;100595.53;4989715;28;20089;-60
2021/04/18 01:04:46;;;;;;;13.70;6.73;;;;;;;15.47;45.09;100598.56;4990096;28;20198;-61
2021/04/18 01:07:13;;;;;;;11.93;7.20;;;;;;;15.46;45.09;100586.47;4989762;28;20049;-62
2021/04/18 01:09:39;;;;;;;12.83;6.47;;;;;;;15.50;45.38;100600.75;4989411;28;20419;-60
2021/04/18 01:12:07;;;;;;;10.03;6.47;;;;;;;15.36;45.36;100570.63;4987307;28;20052;-62
2021/04/18 01:14:33;;;;;;;10.47;6.27;;;;;;;15.53;45.18;100603.78;4990576;28;20046;-60
2021/04/18 01:17:00;;;;;;;10.00;6.40;;;;;;;15.50;45.20;100592.31;4991820;28;20043;-61
2021/04/18 01:19:26;;;;;;;15.47;7.03;;;;;;;15.52;45.26;100582.41;4989925;28;20038;-61
2021/04/18 01:21:56;;;;;;;14.95;6.93;;;;;;;15.53;45.30;100600.13;4988240;28;20050;-62
2021/04/18 01:24:24;;;;;;;12.43;6.43;;;;;;;15.50;45.51;100595.13;4987059;28;20054;-62
2021/04/18 01:26:52;;;;;;;13.57;7.10;;;;;;;15.38;45.52;100582.41;4984640;28;20058;-62
2021/04/18 01:29:19;;;;;;;10.77;5.93;;;;;;;15.45;45.21;100598.03;4990071;28;20133;-61
2021/04/18 01:31:45;;;;;;;13.07;6.67;;;;;;;15.28;45.53;100588.25;4988390;28;20555;-61
2021/04/18 01:34:15;;;;;;;9.83;6.50;;;;;;;15.18;45.48;100577.19;4988494;28;20058;-62
2021/04/18 01:36:45;;;;;;;13.60;5.80;;;;;;;15.11;45.55;100580.41;4987422;28;20138;-62
2021/04/18 01:39:13;;;;;;;13.53;6.10;;;;;;;15.07;45.71;100581.31;4990321;28;20038;-63
2021/04/18 01:41:41;;;;;;;11.83;6.80;;;;;;;14.97;45.80;100561.81;4991030;28;20062;-63
2021/04/18 01:44:14;;;;;;;14.33;7.07;;;;;;;14.98;45.85;100571.94;4987456;28;20058;-63
2021/04/18 01:46:42;;;;;;;17.60;7.10;;;;;;;15.01;45.85;100571.31;4986311;28;20522;-62
2021/04/18 01:49:09;;;;;;;12.67;5.93;;;;;;;14.96;46.09;100565.78;4987083;28;20050;-63
2021/04/18 01:51:35;;;;;;;8.07;5.63;;;;;;;14.71;47.05;100567.94;4986754;28;20483;-63
2021/04/18 01:54:03;;;;;;;8.00;5.10;;;;;;;14.60;47.85;100575.72;4989129;28;20053;-63
2021/04/18 01:56:30;;;;;;;9.33;5.57;;;;;;;14.43;48.12;100570.63;4989122;28;20054;-62
2021/04/18 01:58:56;;;;;;;15.47;6.63;;;;;;;14.32;48.79;100577.53;4987376;28;20057;-62
2021/04/18 02:01:23;;;;;;;8.53;5.50;;;;;;;14.28;48.97;100576.47;4987671;28;20047;-62
2021/04/18 02:03:49;;;;;;;10.97;4.90;;;;;;;14.12;49.21;100584.31;4991225;28;20078;-62
2021/04/18 02:06:16;;;;;;;9.57;5.30;;;;;;;13.91;49.64;100572.53;4980739;28;20855;-63
2021/04/18 02:08:43;;;;;;;7.90;4.70;;;;;;;13.79;50.11;100577.75;4982721;28;20054;-62
2021/04/18 02:11:09;;;;;;;10.03;4.30;;;;;;;13.64;50.88;100580.75;4985617;28;20131;-63
2021/04/18 02:13:36;;;;;;;7.90;4.60;;;;;;;13.51;51.22;100573.91;4990392;28;20480;-64
2021/04/18 02:16:03;;;;;;;7.60;4.20;;;;;;;13.32;51.34;100543.00;4988388;28;20061;-61
2021/04/18 02:18:29;;;;;;;7.47;4.67;;;;;;;13.36;51.61;100552.47;4987733;28;20043;-61
2021/04/18 02:20:56;;;;;;;6.57;4.70;;;;;;;13.34;51.81;100556.75;4988038;28;20045;-63
2021/04/18 02:23:22;;;;;;;6.80;4.60;;;;;;;13.32;52.04;100554.22;4988180;28;20046;-64
2021/04/18 02:25:49;;;;;;;4.87;3.03;;;;;;;13.25;52.15;100545.34;4984062;28;20101;-65
2021/04/18 02:28:15;;;;;;;6.90;3.90;;;;;;;13.20;52.57;100565.84;4984386;28;20062;-64
2021/04/18 02:30:41;;;;;;;10.30;3.60;;;;;;;13.20;52.81;100570.63;4982563;28;20055;-64
2021/04/18 02:33:08;;;;;;;5.53;3.70;;;;;;;12.98;53.12;100545.88;4989008;28;20046;-65
2021/04/18 02:35:34;;;;;;;8.87;4.70;;;;;;;13.14;52.69;100571.78;4987107;28;20051;-66
2021/04/18 02:38:00;;;;;;;8.37;4.80;;;;;;;13.17;52.60;100568.41;4987083;28;20061;-66
2021/04/18 02:40:27;;;;;;;6.27;3.90;;;;;;;12.95;52.65;100550.13;4989113;28;20053;-61
2021/04/18 02:42:54;;;;;;;7.10;3.57;;;;;;;13.05;52.67;100566.81;4981556;28;20407;-61
2021/04/18 02:45:20;;;;;;;8.17;3.80;;;;;;;13.00;52.79;100566.88;4987289;28;20062;-62
2021/04/18 02:47:46;;;;;;;7.73;2.10;;;;;;;12.99;52.66;100570.84;4988151;28;20054;-63
2021/04/18 02:50:13;;;;;;;5.30;3.20;;;;;;;13.04;52.64;100564.34;4988254;28;20042;-60
2021/04/18 02:52:43;;;;;;;3.10;1.67;;;;;;;12.90;52.56;100561.38;4985932;28;20104;-62
2021/04/18 02:55:10;;;;;;;5.60;3.80;;;;;;;12.95;52.87;100572.53;4990510;28;20064;-61
2021/04/18 02:57:36;;;;;;;6.20;3.50;;;;;;;12.84;52.71;100554.16;4988430;28;20049;-62
2021/04/18 03:00:04;;;;;;;8.97;2.57;;;;;;;12.92;52.86;100573.16;4984894;28;20129;-62
2021/04/18 03:02:30;;;;;;;4.53;3.07;;;;;;;12.91;52.87;100577.06;4987838;28;20059;-61
2021/04/18 03:04:59;;;;;;;10.43;4.30;;;;;;;12.84;52.91;100568.16;4982811;28;20050;-61
2021/04/18 03:07:26;;;;;;;10.00;5.20;;;;;;;12.96;52.37;100576.19;4986926;28;20542;-62
2021/04/18 03:09:53;;;;;;;2.97;1.87;;;;;;;12.91;53.11;100577.06;4988064;28;20049;-64
2021/04/18 03:12:19;;;;;;;2.57;1.87;;;;;;;12.83;52.62;100552.50;4985707;28;20046;-62
2021/04/18 03:14:46;;;;;;;2.07;1.50;;;;;;;12.98;52.51;100571.13;4987666;28;20561;-63
2021/04/18 03:17:13;;;;;;;9.90;2.97;;;;;;;12.90;52.06;100540.94;4988461;28;20046;-62
2021/04/18 03:19:40;;;;;;;4.97;3.40;;;;;;;13.08;51.62;100559.78;4986890;28;20042;-63
2021/04/18 03:22:06;;;;;;;7.93;2.87;;;;;;;13.16;51.56;100573.19;4985295;28;20046;-62
2021/04/18 03:24:33;;;;;;;4.20;2.63;;;;;;;13.04;51.94;100556.75;4986887;28;21966;-61
2021/04/18 03:26:59;;;;;;;4.23;2.27;;;;;;;12.92;51.84;100556.34;4983198;28;20125;-61
2021/04/18 03:29:25;;;;;;;5.83;3.77;;;;;;;12.92;52.31;100567.56;4988681;28;20427;-62
2021/04/18 03:31:52;;;;;;;10.37;4.90;;;;;;;13.12;51.92;100574.06;4989629;28;20050;-62
2021/04/18 03:34:18;;;;;;;3.10;2.07;;;;;;;13.03;51.96;100574.72;4987780;28;20402;-61
2021/04/18 03:36:44;;;;;;;9.10;3.70;;;;;;;13.03;51.96;100568.28;4989788;28;20425;-62
2021/04/18 03:39:11;;;;;;;4.83;2.87;;;;;;;13.02;52.05;100573.06;4992669;28;20128;-62
2021/04/18 03:41:37;;;;;;;6.93;3.67;;;;;;;13.00;52.29;100585.69;4990857;28;20061;-63
2021/04/18 03:44:04;;;;;;;8.57;2.60;;;;;;;12.89;52.30;100570.94;4991383;28;20152;-62
2021/04/18 03:46:30;;;;;;;6.60;4.33;;;;;;;12.96;52.40;100581.81;4990681;28;20046;-62
2021/04/18 03:48:57;;;;;;;6.20;3.50;;;;;;;12.90;52.51;100586.63;4966813;28;20047;-62
2021/04/18 03:51:45;;;;;;;3.90;2.23;;;;;;;12.70;53.11;100570.00;4985466;28;20053;-62
2021/04/18 03:54:11;;;;;;;4.77;2.27;;;;;;;12.72;53.16;100576.16;4989802;28;20052;-62
2021/04/18 03:56:38;;;;;;;4.33;2.17;;;;;;;12.68;53.45;100575.03;4993129;28;20430;-62
2021/04/18 03:59:04;;;;;;;4.27;2.33;;;;;;;12.64;53.61;100587.97;4992009;28;20046;-63
2021/04/18 04:01:30;;;;;;;2.93;1.83;;;;;;;12.62;53.37;100576.25;4987703;28;20046;-63
2021/04/18 04:03:58;;;;;;;6.10;3.60;;;;;;;12.57;53.58;100577.09;4987676;28;20063;-63
2021/04/18 04:06:24;;;;;;;2.50;1.93;;;;;;;12.44;53.37;100549.78;4992060;28;20129;-61
2021/04/18 04:08:51;;;;;;;2.47;1.83;;;;;;;12.68;53.42;100591.84;4990187;28;20465;-62
2021/04/18 04:11:17;;;;;;;2.17;1.53;;;;;;;12.72;53.24;100588.19;4988273;28;20038;-62
2021/04/18 04:13:43;;;;;;;1.73;1.63;;;;;;;12.53;53.30;100571.25;4990417;28;20238;-61
2021/04/18 04:16:10;;;;;;;3.10;2.07;;;;;;;12.56;53.01;100567.03;4988224;28;20060;-62
2021/04/18 04:18:36;;;;;;;5.20;1.63;;;;;;;12.74;53.10;100602.72;4991955;28;20073;-62
2021/04/18 04:21:03;;;;;;;5.03;1.90;;;;;;;12.73;53.17;100603.03;4992202;28;20046;-64
2021/04/18 04:23:29;;;;;;;10.17;3.23;;;;;;;12.71;53.30;100596.88;4992441;28;20046;-64
2021/04/18 04:25:55;;;;;;;4.10;2.03;;;;;;;12.63;53.19;100597.53;4989076;28;20049;-63
2021/04/18 04:28:22;;;;;;;5.70;2.47;;;;;;;12.69;53.25;100605.59;4990177;28;20100;-64
2021/04/18 04:30:49;;;;;;;5.73;2.70;;;;;;;12.71;53.11;100605.28;4995374;28;20125;-61
2021/04/18 04:33:15;;;;;;;2.33;1.50;;;;;;;12.72;53.00;100602.22;4991463;28;20083;-62
2021/04/18 04:35:43;;;;;;;2.30;1.80;;;;;;;12.55;52.73;100563.41;4992162;28;20505;-62
2021/04/18 04:38:10;;;;;;;2.17;1.70;;;;;;;12.66;52.82;100586.56;4990803;28;20070;-63
2021/04/18 04:40:36;;;;;;;1.87;1.70;;;;;;;12.78;52.39;100597.38;4988112;28;20068;-63
2021/04/18 04:43:03;;;;;;;3.50;2.53;;;;;;;12.91;52.30;100605.09;4989916;28;20109;-63
2021/04/18 04:45:29;;;;;;;2.03;1.83;;;;;;;12.84;52.29;100593.41;4988856;28;20061;-63
2021/04/18 04:47:56;;;;;;;9.07;2.83;;;;;;;12.88;51.75;100588.03;4986948;28;20046;-62
2021/04/18 04:50:22;;;;;;;3.57;2.10;;;;;;;13.02;51.41;100601.09;4988990;28;20380;-61
2021/04/18 04:52:56;;;;;;;1.50;1.40;;;;;;;13.09;51.11;100611.09;4990311;28;20050;-62
2021/04/18 04:55:22;;;;;;;3.43;2.40;;;;;;;12.90;50.80;100572.59;4992611;28;20065;-62
2021/04/18 04:57:49;;;;;;;3.83;2.73;;;;;;;13.17;50.45;100593.63;4991961;28;20053;-62
2021/04/18 05:00:15;;;;;;;2.60;1.43;;;;;;;13.15;50.06;100587.47;4988588;28;20048;-62
2021/04/18 05:02:42;;;;;;;2.53;1.60;;;;;;;13.26;49.73;100608.69;4985460;28;20051;-63
2021/04/18 05:05:09;;;;;;;4.13;1.97;;;;;;;13.28;49.02;100598.03;4990856;28;20053;-63
2021/04/18 05:07:35;;;;;;;1.77;1.67;;;;;;;13.33;48.90;100597.94;4980357;28;20050;-62
2021/04/18 05:10:02;;;;;;;3.13;2.33;;;;;;;13.23;48.66;100586.81;4988353;28;20513;-61
2021/04/18 05:12:29;;;;;;;3.00;1.40;;;;;;;13.18;48.58;100587.72;4973596;28;20462;-62
2021/04/18 05:14:55;;;;;;;5.13;2.40;;;;;;;13.37;48.38;100613.06;4990709;28;20049;-61
2021/04/18 05:17:21;;;;;;;2.53;1.57;;;;;;;13.24;47.72;100591.34;4988228;28;20046;-61
2021/04/18 05:19:48;;;;;;;7.07;2.67;;;;;;;13.38;47.34;100606.31;4988618;28;20069;-62
2021/04/18 05:22:14;;;;;;;0.50;0.50;;;;;;;13.57;47.13;100605.53;4988637;28;20403;-64
2021/04/18 05:24:41;;;;;;;5.27;1.87;;;;;;;13.32;46.63;100593.50;4991727;28;20054;-69
2021/04/18 05:27:07;;;;;;;1.80;1.57;;;;;;;13.52;46.59;100609.25;4989946;28;20045;-67
2021/04/18 05:29:33;;;;;;;3.63;2.40;;;;;;;13.47;46.21;100607.34;4989446;28;20538;-64
2021/04/18 05:32:00;;;;;;;2.23;1.43;;;;;;;13.54;45.68;100592.97;4989942;28;20056;-58
2021/04/18 05:34:26;;;;;;;2.73;2.07;;;;;;;13.56;45.14;100620.72;4989970;28;20050;-60
2021/04/18 05:36:53;;;;;;;2.70;1.50;;;;;;;13.44;45.15;100590.28;4988838;28;20046;-61
2021/04/18 05:39:19;;;;;;;2.67;1.50;;;;;;;13.60;44.90;100617.00;4990511;28;20042;-61
2021/04/18 05:41:46;;;;;;;3.43;1.50;;;;;;;13.62;44.35;100625.13;4986813;28;20054;-61
2021/04/18 05:44:14;;;;;;;1.37;1.10;;;;;;;13.77;44.35;100627.72;4986401;28;20043;-63
2021/04/18 05:46:42;;;;;;;1.97;1.73;;;;;;;13.70;44.14;100616.03;4989041;28;20054;-62
2021/04/18 05:49:09;;;;;;;2.00;1.07;;;;;;;13.78;43.87;100611.72;4983411;28;20046;-59
2021/04/18 05:51:40;;;;;;;1.60;1.20;;;;;;;13.70;43.70;100607.63;4985155;28;20049;-58
2021/04/18 05:54:07;;;;;;;4.40;1.50;;;;;;;13.72;43.71;100630.63;4987893;28;20050;-58
2021/04/18 05:56:36;;;;;;;4.27;1.73;;;;;;;13.70;43.92;100644.09;4986530;28;20134;-58
2021/04/18 05:59:03;;;;;;;3.47;1.73;;;;;;;13.79;43.65;100635.88;4985041;28;20559;-58
2021/04/18 06:01:32;;;;;;;0.70;0.70;;;;;;;13.43;43.89;100606.25;4968191;28;20046;-58
2021/04/18 06:03:59;;;;;;;3.50;1.63;;;;;;;13.58;43.58;100638.09;4986934;28;20399;-59
2021/04/18 06:06:26;;;;;;;1.73;1.03;;;;;;;13.65;43.46;100635.75;4987803;28;20074;-58
2021/04/18 06:08:53;;;;;;;4.03;1.93;;;;;;;13.65;43.21;100630.16;4986881;28;20046;-58
2021/04/18 06:11:20;;;;;;;0.97;0.93;;;;;;;13.67;43.43;100642.72;4987401;28;20053;-59
2021/04/18 06:13:48;;;;;;;1.83;1.03;;;;;;;13.67;43.48;100650.31;4987587;28;20062;-58
2021/04/18 06:16:15;;;;;;;2.00;1.37;;;;;;;13.63;43.34;100649.25;4986741;28;20494;-60
2021/04/18 06:18:42;;;;;;;5.57;1.63;;;;;;;13.72;42.89;100664.28;4982969;28;20439;-57
2021/04/18 06:21:11;;;;;;;1.17;1.07;;;;;;;13.74;42.97;100656.38;4985598;28;20069;-58
2021/04/18 06:23:40;;;;;;;1.48;1.10;;;;;;;13.75;42.64;100646.84;4985832;28;20056;-58
2021/04/18 06:26:07;;;;;;;2.47;2.05;;;;;;;13.79;42.55;100658.31;4989200;28;20046;-59
2021/04/18 06:28:33;;;;;;;1.90;1.67;;;;;;;13.87;42.04;100661.28;4986561;28;20061;-60
2021/04/18 06:31:00;;;;;;;1.83;1.10;;;;;;;14.07;42.10;100664.97;4986026;28;20046;-58
2021/04/18 06:33:26;;;;;;;1.77;1.60;;;;;;;14.15;41.80;100670.75;4989194;28;20046;-58
2021/04/18 06:35:53;;;;;;;2.47;0.80;;;;;;;14.11;41.72;100660.41;4985250;28;20408;-60
2021/04/18 06:38:20;;;;;;;1.23;0.97;;;;;;;14.21;41.33;100654.66;4987119;28;20147;-58
2021/04/18 06:40:51;;;;;;;4.33;1.73;;;;;;;13.77;41.08;100587.59;4987742;28;20047;-59
2021/04/18 06:43:20;;;;;;;4.10;1.40;;;;;;;14.28;41.08;100655.13;4985833;28;20046;-58
2021/04/18 06:45:52;;;;;;;4.57;1.40;;;;;;;14.44;40.71;100673.44;4986866;28;20117;-58
2021/04/18 06:48:32;;;;;;;11.87;2.60;;;;;;;14.57;40.54;100679.47;4988595;28;20555;-59
2021/04/18 06:50:59;;;;;;;1.10;0.87;;;;;;;14.61;40.22;100689.78;4987347;28;20077;-58
2021/04/18 06:53:28;;;;;;;5.63;1.93;;;;;;;14.69;39.96;100688.25;4987281;28;20145;-58
2021/04/18 06:55:55;;;;;;;2.40;1.60;;;;;;;14.81;39.33;100679.38;4982341;28;20555;-58
2021/04/18 06:58:21;;;;;;;2.73;1.47;;;;;;;14.83;39.56;100674.25;4989920;28;20051;-60
2021/04/18 07:00:48;;;;;;;1.67;0.97;;;;;;;14.96;39.30;100692.34;4987310;28;20435;-59
2021/04/18 07:03:18;;;;;;;3.00;1.43;;;;;;;15.14;39.23;100683.88;4988929;28;20047;-58
2021/04/18 07:05:47;;;;;;;3.03;1.87;;;;;;;15.10;39.10;100696.84;4988868;28;20064;-59
2021/04/18 07:08:24;;;;;;;1.97;1.50;;;;;;;14.88;38.83;100697.50;4992642;28;20042;-59
2021/04/18 07:10:51;;;;;;;1.53;0.90;;;;;;;14.96;39.05;100687.53;4984482;28;20462;-60
2021/04/18 07:13:19;;;;;;;1.23;1.13;;;;;;;14.99;38.83;100702.97;4991911;28;20050;-59
2021/04/18 07:15:47;;;;;;;3.07;0.93;;;;;;;15.00;38.78;100716.72;4989834;28;20046;-58
2021/04/18 07:18:40;;;;;;;1.80;1.30;;;;;;;14.80;38.91;100695.41;4990606;28;20047;-57
2021/04/18 07:21:07;;;;;;;5.20;1.40;;;;;;;14.88;38.92;100700.34;4983105;28;20046;-59
2021/04/18 07:23:34;;;;;;;3.63;1.47;;;;;;;14.90;38.59;100698.03;4984738;28;20053;-59
2021/04/18 07:26:26;;;;;;;2.25;1.60;;;;;;;15.02;38.43;100725.69;4985395;28;20097;-61
2021/04/18 07:29:15;;;;;;;1.20;1.10;;;;;;;15.12;37.90;100708.66;4984271;28;20058;-61
2021/04/18 07:31:42;;;;;;;2.20;1.50;;;;;;;15.34;37.60;100687.44;4966538;28;20051;-58
2021/04/18 07:34:14;;;;;;;2.37;1.80;;;;;;;15.64;37.35;100702.94;4973461;28;20402;-59
2021/04/18 07:36:43;;;;;;;2.33;1.33;;;;;;;15.82;37.27;100710.47;4991142;28;20046;-59
2021/04/18 07:39:12;;;;;;;1.87;1.40;;;;;;;15.81;36.78;100724.88;4984608;28;20053;-59
2021/04/18 07:41:43;;;;;;;2.60;1.85;;;;;;;15.78;36.87;100723.50;4985227;28;20054;-58
2021/04/18 07:44:15;;;;;;;1.33;1.03;;;;;;;15.70;36.81;100721.44;4988879;28;20599;-58
2021/04/18 07:46:50;;;;;;;4.43;1.47;;;;;;;15.64;36.88;100731.06;4988234;28;20045;-58
2021/04/18 07:49:18;;;;;;;1.67;0.90;;;;;;;15.69;36.56;100711.31;4989723;28;20050;-59
2021/04/18 07:51:47;;;;;;;2.07;1.47;;;;;;;15.71;36.62;100700.56;4987447;28;20042;-59
2021/04/18 07:54:18;;;;;;;4.17;1.00;;;;;;;15.78;36.35;100714.22;4984204;28;20049;-57
2021/04/18 07:56:45;;;;;;;3.00;1.00;;;;;;;16.00;36.37;100719.13;4985789;28;20050;-58
2021/04/18 07:59:21;;;;;;;1.93;1.63;;;;;;;16.04;36.01;100711.75;4991226;28;20051;-57
2021/04/18 08:01:47;;;;;;;0.80;0.80;;;;;;;16.14;35.76;100714.34;4983179;28;20058;-59
2021/04/18 08:04:18;;;;;;;3.87;1.40;;;;;;;16.45;35.36;100708.06;4986184;28;20046;-59
2021/04/18 08:06:45;;;;;;;3.67;1.27;;;;;;;16.65;34.98;100716.03;4989447;28;20153;-58
2021/04/18 08:09:22;;;;;;;1.30;1.20;;;;;;;16.85;34.17;100699.78;4986045;28;20414;-57
2021/04/18 08:12:08;;;;;;;1.13;1.03;;;;;;;17.40;33.89;100722.09;4983624;28;20046;-57
2021/04/18 08:14:36;;;;;;;1.63;1.30;;;;;;;17.69;33.25;100736.56;4984344;28;20138;-58
2021/04/18 08:17:06;;;;;;;2.40;0.90;;;;;;;17.74;32.86;100713.84;4984489;28;20108;-59
2021/04/18 08:19:33;;;;;;;2.93;1.43;;;;;;;17.82;32.24;100725.53;4989358;28;20129;-57
2021/04/18 08:22:00;;;;;;;1.67;1.20;;;;;;;17.53;32.14;100715.53;4987813;28;20066;-57
2021/04/18 08:24:33;;;;;;;1.33;1.23;;;;;;;17.18;32.73;100714.50;4988616;28;20069;-58
2021/04/18 08:27:00;;;;;;;2.20;1.52;;;;;;;17.52;32.89;100734.47;4986320;28;20049;-58
2021/04/18 08:29:30;;;;;;;3.63;1.70;;;;;;;17.68;32.67;100726.44;4988945;28;20053;-58
2021/04/18 08:31:58;;;;;;;3.05;1.30;;;;;;;17.89;32.46;100728.72;4987312;28;20038;-57
2021/04/18 08:34:42;;;;;;;1.87;1.47;;;;;;;17.68;32.10;100732.09;4987391;28;20047;-57
2021/04/18 08:37:17;;;;;;;3.17;1.45;;;;;;;17.74;32.27;100725.16;4980224;28;20055;-58
2021/04/18 08:39:44;;;;;;;1.60;1.10;;;;;;;17.93;32.06;100738.22;4989600;28;20051;-58
2021/04/18 08:42:24;;;;;;;2.28;1.75;;;;;;;18.07;31.84;100721.97;4985173;28;20048;-58
2021/04/18 08:44:57;;;;;;;1.33;1.07;;;;;;;18.20;31.80;100729.50;4984482;28;20050;-58
2021/04/18 08:47:26;;;;;;;5.63;2.47;;;;;;;18.65;31.45;100729.28;4987528;28;20129;-58
2021/04/18 08:50:08;;;;;;;2.67;1.58;;;;;;;18.75;30.52;100747.13;4984188;28;20403;-58
2021/04/18 08:52:36;;;;;;;2.92;1.30;;;;;;;18.77;30.58;100741.94;4968857;28;20047;-60
2021/04/18 08:55:09;;;;;;;11.38;1.30;;;;;;;18.51;30.28;100708.78;4988083;28;20050;-60
2021/04/18 08:57:36;;;;;;;5.18;1.42;;;;;;;18.79;30.27;100748.94;4985903;28;20056;-60
2021/04/18 09:00:11;;;;;;;1.17;1.08;;;;;;;18.92;29.82;100741.47;4988562;28;20057;-60
2021/04/18 09:02:37;;;;;;;1.38;1.00;;;;;;;19.16;29.59;100740.97;4990206;28;20057;-59
2021/04/18 09:05:09;;;;;;;3.25;1.73;;;;;;;19.38;29.11;100754.97;4989113;28;20050;-59
2021/04/18 09:07:41;;;;;;;2.38;1.58;;;;;;;19.52;29.00;100760.44;4990533;28;20081;-59
2021/04/18 09:10:16;;;;;;;2.75;1.52;;;;;;;19.48;28.90;100745.25;4991529;28;20039;-60
2021/04/18 09:12:46;;;;;;;5.45;1.65;;;;;;;19.78;28.61;100737.72;4991626;28;20054;-59
2021/04/18 09:15:12;;;;;;;7.28;2.15;;;;;;;19.94;28.02;100748.50;4988301;28;20505;-59
2021/04/18 09:17:41;;;;;;;5.95;1.48;;;;;;;20.20;28.29;100745.53;4991088;28;20394;-59
2021/04/18 09:20:10;;;;;;;3.70;1.42;;;;;;;20.02;27.44;100716.47;4987226;28;20054;-60
2021/04/18 09:22:38;;;;;;;1.27;0.93;;;;;;;20.08;27.65;100746.28;4990833;28;20121;-59
2021/04/18 09:25:12;;;;;;;2.28;1.40;;;;;;;20.22;27.58;100738.38;4991689;28;20053;-58
2021/04/18 09:27:40;;;;;;;1.98;1.70;;;;;;;20.61;27.44;100755.38;4991740;28;20452;-59
2021/04/18 09:30:20;;;;;;;3.50;2.08;;;;;;;20.62;27.13;100749.38;4990932;28;20051;-59
2021/04/18 09:32:51;;;;;;;2.47;1.52;;;;;;;20.68;26.64;100749.97;4985027;28;20410;-59
2021/04/18 09:35:21;;;;;;;2.05;1.42;;;;;;;20.77;26.62;100742.25;4990699;28;20061;-59
2021/04/18 09:37:51;;;;;;;3.28;2.20;;;;;;;20.81;26.52;100752.53;4989934;28;20514;-60
2021/04/18 09:40:31;;;;;;;4.85;2.33;;;;;;;21.13;26.82;100743.59;4986762;28;20506;-59
2021/04/18 09:42:58;;;;;;;3.63;1.77;;;;;;;21.80;26.30;100758.69;4986842;28;20253;-60
2021/04/18 09:45:27;;;;;;;1.42;1.33;;;;;;;21.80;25.74;100761.53;4990291;28;20050;-58
2021/04/18 09:48:09;;;;;;;4.03;2.58;;;;;;;21.61;25.97;100747.88;4991358;28;20046;-59
2021/04/18 09:50:36;;;;;;;1.92;1.75;;;;;;;21.59;25.79;100759.59;4987928;28;20051;-58
2021/04/18 09:53:21;;;;;;;1.10;1.00;;;;;;;21.49;25.44;100757.19;4990458;28;20121;-60
2021/04/18 09:55:57;;;;;;;1.38;1.27;;;;;;;21.32;25.95;100758.16;4990344;28;20050;-60
2021/04/18 09:58:30;;;;;;;0.73;0.73;;;;;;;21.36;25.87;100764.81;4985720;28;20054;-59
2021/04/18 10:00:58;;;;;;;1.67;1.33;;;;;;;21.64;25.83;100764.22;4985508;28;20056;-59
2021/04/18 10:03:47;;;;;;;4.75;1.83;;;;;;;21.43;25.78;100758.56;4986210;28;20054;-60
2021/04/18 10:06:14;;;;;;;2.13;1.20;;;;;;;21.50;25.61;100754.00;4989046;28;20057;-59
2021/04/18 10:08:41;;;;;;;15.63;2.15;;;;;;;21.68;25.64;100759.50;4990310;28;20057;-59
2021/04/18 10:11:07;;;;;;;4.88;2.33;;;;;;;22.23;25.59;100776.09;4989651;28;20042;-59
2021/04/18 10:13:54;;;;;;;2.65;1.55;;;;;;;22.37;25.05;100763.56;4990021;28;20051;-59
2021/04/18 10:16:42;;;;;;;6.45;2.67;;;;;;;22.70;25.33;100763.38;4985438;28;20046;-59
2021/04/18 10:19:19;;;;;;;2.58;1.60;;;;;;;22.82;24.92;100700.75;4990545;28;20053;-60
2021/04/18 10:22:02;;;;;;;2.25;1.58;;;;;;;23.38;24.13;100757.81;4985968;28;20047;-60
2021/04/18 10:24:50;;;;;;;4.25;1.92;;;;;;;23.47;23.91;100751.09;4986195;28;20042;-58
2021/04/18 10:27:22;;;;;;;3.40;2.03;;;;;;;23.42;24.19;100760.75;4987870;28;20534;-59
2021/04/18 10:29:49;;;;;;;2.88;2.08;;;;;;;23.63;24.39;100764.22;4990279;28;20042;-59
2021/04/18 10:32:18;;;;;;;1.58;1.40;;;;;;;23.74;24.11;100767.38;4989019;28;20046;-59
2021/04/18 10:34:47;;;;;;;3.90;2.60;;;;;;;23.67;24.02;100752.91;4990058;28;20057;-59
2021/04/18 10:37:14;;;;;;;9.48;2.42;;;;;;;24.12;23.71;100760.25;4990633;28;20045;-61
2021/04/18 10:39:41;;;;;;;0.95;0.95;;;;;;;24.49;23.46;100772.25;4988946;28;20406;-60
2021/04/18 10:42:07;;;;;;;1.73;1.23;;;;;;;24.24;23.45;100763.03;4990038;28;20070;-60
2021/04/18 10:44:36;;;;;;;4.13;1.77;;;;;;;24.05;24.09;100775.16;4986559;28;20154;-60
2021/04/18 10:47:16;;;;;;;2.38;1.65;;;;;;;24.08;23.86;100756.47;4990151;28;20126;-59
2021/04/18 10:49:45;;;;;;;3.13;1.55;;;;;;;24.13;23.57;100770.47;4989279;28;20443;-60
2021/04/18 10:52:12;;;;;;;2.67;2.15;;;;;;;24.27;23.62;100773.72;4973213;28;20056;-60
2021/04/18 10:54:38;;;;;;;2.80;2.10;;;;;;;24.59;23.18;100768.00;4989215;28;20054;-59
2021/04/18 10:57:05;;;;;;;2.10;1.90;;;;;;;25.22;23.20;100759.25;4990260;28;20054;-61
2021/04/18 10:59:31;;;;;;;3.38;2.58;;;;;;;26.17;22.33;100757.88;4989912;28;20047;-60
2021/04/18 11:01:58;;;;;;;3.53;2.00;;;;;;;27.06;21.43;100765.03;4989535;28;20478;-60
2021/04/18 11:04:24;;;;;;;2.63;1.70;;;;;;;27.83;21.13;100757.88;4989733;28;20073;-60
2021/04/18 11:06:51;;;;;;;3.50;2.65;;;;;;;27.06;20.74;100779.38;4989455;28;20050;-59
2021/04/18 11:09:17;;;;;;;3.40;1.90;;;;;;;26.80;21.35;100759.31;4988751;28;20134;-60
2021/04/18 11:11:44;;;;;;;4.97;1.90;;;;;;;27.30;21.58;100762.94;4989427;28;20081;-59
2021/04/18 11:14:13;;;;;;;3.00;1.90;;;;;;;27.44;21.17;100765.97;4990535;28;20047;-59
2021/04/18 11:16:42;;;;;;;4.65;1.90;;;;;;;27.27;21.69;100763.72;4989045;28;20050;-60
2021/04/18 11:19:09;;;;;;;6.60;1.92;;;;;;;27.22;21.22;100762.03;4989861;28;20152;-59
2021/04/18 11:21:36;;;;;;;4.57;2.05;;;;;;;27.33;20.63;100760.09;4989992;28;20072;-58
2021/04/18 11:24:02;;;;;;;3.13;1.92;;;;;;;27.66;21.24;100758.47;4988171;28;20782;-60
2021/04/18 11:26:29;;;;;;;3.13;1.85;;;;;;;27.96;20.76;100775.59;4987317;28;20732;-59
2021/04/18 11:28:56;;;;;;;2.60;1.80;;;;;;;28.02;21.15;100765.44;4985562;28;20050;-59
2021/04/18 11:31:23;;;;;;;3.67;1.70;;;;;;;27.96;20.47;100754.69;4981765;28;20047;-60